Time;durP1;ratioP1;P1;durP2;ratioP2;P2;SDS_P1;SDS_P2;PMS_P1;PMS_P2;Temp;Humidity;BMP_temperature;BMP_pressure;BME280_temperature;BME280_humidity;BME280_pressure;Samples;Min_cycle;Max_cycle;Signal;HPM_P1;HPM_P2
2022/09/09 00:00:00;;;;;;;;;;;;;;;;;;1026073;28;19914;-74
2022/09/09 00:00:31;;;;;;;;;;;;;;;;;;1025938;28;20454;-74
2022/09/09 00:01:01;;;;;;;;;;;;;;;;;;1025839;28;20177;-74
2022/09/09 00:01:31;;;;;;;;;;;;;;;;;;1025663;28;20436;-74
2022/09/09 00:02:02;;;;;;;;;;;;;;;;;;1025563;28;20069;-74
2022/09/09 00:02:32;;;;;;;;;;;;;;;;;;1019877;29;19910;-74
2022/09/09 00:03:02;;;;;;;;;;;;;;;;;;1019385;29;19914;-74
2022/09/09 00:03:32;;;;;;;;;;;;;;;;;;1019641;29;19982;-74
2022/09/09 00:04:03;;;;;;;;;;;;;;;;;;1019715;29;19910;-74
2022/09/09 00:04:34;;;;;;;;;;;;;;;;;;1025851;28;21048;-72
2022/09/09 00:05:04;;;;;;;;;;;;;;;;;;1025297;28;19913;-72
2022/09/09 00:05:34;;;;;;;;;;;;;;;;;;1025550;28;19997;-72
2022/09/09 00:06:05;;;;;;;;;;;;;;;;;;1025266;28;19921;-72
2022/09/09 00:06:35;;;;;;;;;;;;;;;;;;1025621;28;19914;-72
2022/09/09 00:07:05;;;;;;;;;;;;;;;;;;1025471;28;20468;-72
2022/09/09 00:07:35;;;;;;;;;;;;;;;;;;1025458;28;19917;-72
2022/09/09 00:08:06;;;;;;;;;;;;;;;;;;1025345;28;20396;-72
2022/09/09 00:08:37;;;;;;;;;;;;;;;;;;1025205;28;19910;-72
2022/09/09 00:09:07;;;;;;;;;;;;;;;;;;1025020;28;19909;-72
2022/09/09 00:09:38;;;;;;;;;;;;;;;;;;1025318;28;19926;-74
2022/09/09 00:10:08;;;;;;;;;;;;;;;;;;1025101;28;19910;-74
2022/09/09 00:10:45;;;;;;;;;;;;;;;;;;1025226;28;20366;-74
2022/09/09 00:11:15;;;;;;;;;;;;;;;;;;1022643;28;19961;-74
2022/09/09 00:11:46;;;;;;;;;;;;;;;;;;1022705;28;20547;-74
2022/09/09 00:12:16;;;;;;;;;;;;;;;;;;1022804;28;19937;-74
2022/09/09 00:12:48;;;;;;;;;;;;;;;;;;1022646;28;19973;-74
2022/09/09 00:13:19;;;;;;;;;;;;;;;;;;1023967;28;20406;-74
2022/09/09 00:13:49;;;;;;;;;;;;;;;;;;1022933;28;19910;-74
2022/09/09 00:14:19;;;;;;;;;;;;;;;;;;1022713;28;19932;-74
2022/09/09 00:14:50;;;;;;;;;;;;;;;;;;1022684;28;19957;-74
2022/09/09 00:15:20;;;;;;;;;;;;;;;;;;1020840;29;19914;-74
2022/09/09 00:15:50;;;;;;;;;;;;;;;;;;1020828;29;20013;-74
2022/09/09 00:16:22;;;;;;;;;;;;;;;;;;1020785;29;20410;-74
2022/09/09 00:16:52;;;;;;;;;;;;;;;;;;1020689;28;19950;-74
2022/09/09 00:17:22;;;;;;;;;;;;;;;;;;1020994;28;19910;-74
2022/09/09 00:17:55;;;;;;;;;;;;;;;;;;1024540;28;20389;-74
2022/09/09 00:18:25;;;;;;;;;;;;;;;;;;1024739;28;19945;-74
2022/09/09 00:18:55;;;;;;;;;;;;;;;;;;1024584;28;19914;-72
2022/09/09 00:19:26;;;;;;;;;;;;;;;;;;1025050;28;19910;-72
2022/09/09 00:19:56;;;;;;;;;;;;;;;;;;1025179;28;20437;-73
2022/09/09 00:20:26;;;;;;;;;;;;;;;;;;1024714;28;19972;-74
2022/09/09 00:20:57;;;;;;;;;;;;;;;;;;1024785;28;19949;-74
2022/09/09 00:21:27;;;;;;;;;;;;;;;;;;1024913;28;20684;-74
2022/09/09 00:21:57;;;;;;;;;;;;;;;;;;1025240;28;19909;-74
2022/09/09 00:22:27;;;;;;;;;;;;;;;;;;1026044;28;20368;-74
2022/09/09 00:22:59;;;;;;;;;;;;;;;;;;1026194;28;20389;-74
2022/09/09 00:23:29;;;;;;;;;;;;;;;;;;1026202;28;20393;-74
2022/09/09 00:23:59;;;;;;;;;;;;;;;;;;1023758;28;20013;-74
2022/09/09 00:24:29;;;;;;;;;;;;;;;;;;1023483;28;19925;-74
2022/09/09 00:25:00;;;;;;;;;;;;;;;;;;1023626;28;19914;-74
2022/09/09 00:25:30;;;;;;;;;;;;;;;;;;1023644;28;20567;-74
2022/09/09 00:26:00;;;;;;;;;;;;;;;;;;1025326;28;20337;-74
2022/09/09 00:26:30;;;;;;;;;;;;;;;;;;1025626;28;20413;-74
2022/09/09 00:27:01;;;;;;;;;;;;;;;;;;1025549;28;19914;-74
2022/09/09 00:27:31;;;;;;;;;;;;;;;;;;1025581;28;19955;-74
2022/09/09 00:28:01;;;;;;;;;;;;;;;;;;1025307;28;19910;-74
2022/09/09 00:28:32;;;;;;;;;;;;;;;;;;1026047;28;19910;-74
2022/09/09 00:29:02;;;;;;;;;;;;;;;;;;1024868;28;19957;-74
2022/09/09 00:29:32;;;;;;;;;;;;;;;;;;1026125;28;19910;-74
2022/09/09 00:30:03;;;;;;;;;;;;;;;;;;1026032;28;19961;-74
2022/09/09 00:30:34;;;;;;;;;;;;;;;;;;1023644;28;19932;-74
2022/09/09 00:31:04;;;;;;;;;;;;;;;;;;1023849;28;19956;-74
2022/09/09 00:31:34;;;;;;;;;;;;;;;;;;1024499;28;20534;-74
2022/09/09 00:32:04;;;;;;;;;;;;;;;;;;1024670;28;19915;-74
2022/09/09 00:32:35;;;;;;;;;;;;;;;;;;1026300;28;20440;-74
2022/09/09 00:33:05;;;;;;;;;;;;;;;;;;1024429;28;19910;-74
2022/09/09 00:33:36;;;;;;;;;;;;;;;;;;1024058;28;19972;-74
2022/09/09 00:34:06;;;;;;;;;;;;;;;;;;1024123;28;19964;-74
2022/09/09 00:34:36;;;;;;;;;;;;;;;;;;1021928;29;20009;-74
2022/09/09 00:35:07;;;;;;;;;;;;;;;;;;1024189;28;20313;-74
2022/09/09 00:35:37;;;;;;;;;;;;;;;;;;1024953;28;19918;-74
2022/09/09 00:36:07;;;;;;;;;;;;;;;;;;1020343;29;20318;-74
2022/09/09 00:36:37;;;;;;;;;;;;;;;;;;1019851;29;19916;-74
2022/09/09 00:37:08;;;;;;;;;;;;;;;;;;1018814;28;20029;-74
2022/09/09 00:37:40;;;;;;;;;;;;;;;;;;1019389;29;19914;-74
2022/09/09 00:38:10;;;;;;;;;;;;;;;;;;1026368;28;19910;-74
2022/09/09 00:38:41;;;;;;;;;;;;;;;;;;1026333;28;19951;-74
2022/09/09 00:39:11;;;;;;;;;;;;;;;;;;1026206;28;19910;-74
2022/09/09 00:39:41;;;;;;;;;;;;;;;;;;1025732;28;20459;-74
2022/09/09 00:40:12;;;;;;;;;;;;;;;;;;1025225;28;19960;-72
2022/09/09 00:40:43;;;;;;;;;;;;;;;;;;1025002;28;20472;-72
2022/09/09 00:41:13;;;;;;;;;;;;;;;;;;1024608;28;20000;-72
2022/09/09 00:41:43;;;;;;;;;;;;;;;;;;1024681;28;19964;-72
2022/09/09 00:42:14;;;;;;;;;;;;;;;;;;1024606;28;20382;-72
2022/09/09 00:42:45;;;;;;;;;;;;;;;;;;1024801;28;19917;-72
2022/09/09 00:43:16;;;;;;;;;;;;;;;;;;1018185;29;19914;-72
2022/09/09 00:43:46;;;;;;;;;;;;;;;;;;1018699;29;19914;-72
2022/09/09 00:44:17;;;;;;;;;;;;;;;;;;1018875;29;19922;-72
2022/09/09 00:44:47;;;;;;;;;;;;;;;;;;1018796;29;20030;-72
2022/09/09 00:45:18;;;;;;;;;;;;;;;;;;1023874;28;20087;-74
2022/09/09 00:45:48;;;;;;;;;;;;;;;;;;1025163;28;19953;-74
2022/09/09 00:46:19;;;;;;;;;;;;;;;;;;1024907;28;19914;-74
2022/09/09 00:46:49;;;;;;;;;;;;;;;;;;1022177;28;19916;-74
2022/09/09 00:47:19;;;;;;;;;;;;;;;;;;1021872;28;20375;-72
2022/09/09 00:47:49;;;;;;;;;;;;;;;;;;1022254;28;19989;-72
2022/09/09 00:48:20;;;;;;;;;;;;;;;;;;1018012;29;19911;-72
2022/09/09 00:48:51;;;;;;;;;;;;;;;;;;1020365;28;19958;-72
2022/09/09 00:49:21;;;;;;;;;;;;;;;;;;1021945;28;19910;-72
2022/09/09 00:49:51;;;;;;;;;;;;;;;;;;1022805;28;19956;-74
2022/09/09 00:50:24;;;;;;;;;;;;;;;;;;1027819;28;19918;-74
2022/09/09 00:50:55;;;;;;;;;;;;;;;;;;1027038;28;20296;-74
2022/09/09 00:51:25;;;;;;;;;;;;;;;;;;1022872;28;19910;-74
2022/09/09 00:51:56;;;;;;;;;;;;;;;;;;1023036;28;19917;-72
2022/09/09 00:52:26;;;;;;;;;;;;;;;;;;1024160;28;20266;-72
2022/09/09 00:52:57;;;;;;;;;;;;;;;;;;1024691;28;19936;-72
2022/09/09 00:53:27;;;;;;;;;;;;;;;;;;1028638;28;19913;-72
2022/09/09 00:53:58;;;;;;;;;;;;;;;;;;1025217;28;20140;-74
2022/09/09 00:54:28;;;;;;;;;;;;;;;;;;1024815;28;19909;-74
2022/09/09 00:54:58;;;;;;;;;;;;;;;;;;1024678;28;20009;-74
2022/09/09 00:55:29;;;;;;;;;;;;;;;;;;1019016;29;20391;-74
2022/09/09 00:55:59;;;;;;;;;;;;;;;;;;1018947;29;20016;-74
2022/09/09 00:56:30;;;;;;;;;;;;;;;;;;1019187;29;19958;-74
2022/09/09 00:57:00;;;;;;;;;;;;;;;;;;1019756;29;19930;-71
2022/09/09 00:57:31;;;;;;;;;;;;;;;;;;1023511;28;19914;-71
2022/09/09 00:58:01;;;;;;;;;;;;;;;;;;1023437;28;20066;-71
2022/09/09 00:58:32;;;;;;;;;;;;;;;;;;1023848;28;19910;-71
2022/09/09 00:59:02;;;;;;;;;;;;;;;;;;1023827;28;19932;-72
2022/09/09 00:59:36;;;;;;;;;;;;;;;;;;1026012;28;20268;-72
2022/09/09 01:00:06;;;;;;;;;;;;;;;;;;1026337;28;19949;-72
2022/09/09 01:00:38;;;;;;;;;;;;;;;;;;1025213;28;19914;-72
2022/09/09 01:01:08;;;;;;;;;;;;;;;;;;1020957;29;20021;-72
2022/09/09 01:01:39;;;;;;;;;;;;;;;;;;1020596;29;20358;-72
2022/09/09 01:02:09;;;;;;;;;;;;;;;;;;1020498;29;20267;-72
2022/09/09 01:02:40;;;;;;;;;;;;;;;;;;1020112;29;19910;-72
2022/09/09 01:03:10;;;;;;;;;;;;;;;;;;1026211;28;19917;-72
2022/09/09 01:03:40;;;;;;;;;;;;;;;;;;1024344;28;19921;-72
2022/09/09 01:04:11;;;;;;;;;;;;;;;;;;1022028;29;19929;-72
2022/09/09 01:04:42;;;;;;;;;;;;;;;;;;1018287;29;20005;-72
2022/09/09 01:05:13;;;;;;;;;;;;;;;;;;1017882;29;19914;-72
2022/09/09 01:05:44;;;;;;;;;;;;;;;;;;1022597;28;19910;-72
2022/09/09 01:06:14;;;;;;;;;;;;;;;;;;1024250;28;19910;-72
2022/09/09 01:06:46;;;;;;;;;;;;;;;;;;1026485;28;19925;-72
2022/09/09 01:07:16;;;;;;;;;;;;;;;;;;1024199;28;20805;-72
2022/09/09 01:07:46;;;;;;;;;;;;;;;;;;1026420;28;19910;-72
2022/09/09 01:08:17;;;;;;;;;;;;;;;;;;1026496;28;20325;-72
2022/09/09 01:08:47;;;;;;;;;;;;;;;;;;1026387;28;19966;-72
2022/09/09 01:09:17;;;;;;;;;;;;;;;;;;1025691;28;20382;-72
2022/09/09 01:09:47;;;;;;;;;;;;;;;;;;1025532;28;19914;-73
2022/09/09 01:10:18;;;;;;;;;;;;;;;;;;1026713;28;19910;-74
2022/09/09 01:10:49;;;;;;;;;;;;;;;;;;1026643;28;20426;-74
2022/09/09 01:11:19;;;;;;;;;;;;;;;;;;1026708;28;19917;-74
2022/09/09 01:11:49;;;;;;;;;;;;;;;;;;1026047;28;19961;-71
2022/09/09 01:12:20;;;;;;;;;;;;;;;;;;1026752;28;20396;-71
2022/09/09 01:12:50;;;;;;;;;;;;;;;;;;1026710;28;19969;-72
2022/09/09 01:13:20;;;;;;;;;;;;;;;;;;1026620;28;20389;-73
2022/09/09 01:13:51;;;;;;;;;;;;;;;;;;1026693;28;19914;-73
2022/09/09 01:14:21;;;;;;;;;;;;;;;;;;1026344;28;19992;-73
2022/09/09 01:14:52;;;;;;;;;;;;;;;;;;1026180;28;20284;-73
2022/09/09 01:15:27;;;;;;;;;;;;;;;;;;1026812;28;20393;-72
2022/09/09 01:15:59;;;;;;;;;;;;;;;;;;1026629;28;19920;-73
2022/09/09 01:16:29;;;;;;;;;;;;;;;;;;1026866;28;20010;-73
2022/09/09 01:17:00;;;;;;;;;;;;;;;;;;1026654;28;20293;-73
2022/09/09 01:17:30;;;;;;;;;;;;;;;;;;1026059;28;21948;-73
2022/09/09 01:18:01;;;;;;;;;;;;;;;;;;1022150;29;20369;-73
2022/09/09 01:18:34;;;;;;;;;;;;;;;;;;1022201;29;19911;-73
2022/09/09 01:19:04;;;;;;;;;;;;;;;;;;1022539;28;20564;-73
2022/09/09 01:19:37;;;;;;;;;;;;;;;;;;1024196;28;20428;-73
2022/09/09 01:20:08;;;;;;;;;;;;;;;;;;1023332;28;19914;-73
2022/09/09 01:20:39;;;;;;;;;;;;;;;;;;1023484;28;20376;-73
2022/09/09 01:21:09;;;;;;;;;;;;;;;;;;1021220;29;19910;-72
2022/09/09 01:21:39;;;;;;;;;;;;;;;;;;1021530;29;20016;-73
2022/09/09 01:22:10;;;;;;;;;;;;;;;;;;1022350;28;19914;-72
2022/09/09 01:22:40;;;;;;;;;;;;;;;;;;1022421;28;20180;-73
2022/09/09 01:23:10;;;;;;;;;;;;;;;;;;1023385;28;20495;-72
2022/09/09 01:23:42;;;;;;;;;;;;;;;;;;1024481;28;20004;-73
2022/09/09 01:24:12;;;;;;;;;;;;;;;;;;1025380;28;19909;-73
2022/09/09 01:24:42;;;;;;;;;;;;;;;;;;1024886;28;20334;-73
2022/09/09 01:25:13;;;;;;;;;;;;;;;;;;1026395;28;19910;-73
2022/09/09 01:25:43;;;;;;;;;;;;;;;;;;1026339;28;20435;-72
2022/09/09 01:26:14;;;;;;;;;;;;;;;;;;1020877;29;19918;-73
2022/09/09 01:26:44;;;;;;;;;;;;;;;;;;1019217;28;19925;-73
2022/09/09 01:27:15;;;;;;;;;;;;;;;;;;1018919;28;20089;-73
2022/09/09 01:27:45;;;;;;;;;;;;;;;;;;1021908;28;20006;-72
2022/09/09 01:28:15;;;;;;;;;;;;;;;;;;1025247;28;20273;-74
2022/09/09 01:28:45;;;;;;;;;;;;;;;;;;1020932;28;20007;-74
2022/09/09 01:29:16;;;;;;;;;;;;;;;;;;1021373;29;20021;-74
2022/09/09 01:29:46;;;;;;;;;;;;;;;;;;1021398;29;19920;-75
2022/09/09 01:30:17;;;;;;;;;;;;;;;;;;1015741;29;20004;-75
2022/09/09 01:30:47;;;;;;;;;;;;;;;;;;1021471;29;19917;-73
2022/09/09 01:31:17;;;;;;;;;;;;;;;;;;1021373;28;19914;-73
2022/09/09 01:31:48;;;;;;;;;;;;;;;;;;1021350;28;20355;-73
2022/09/09 01:32:18;;;;;;;;;;;;;;;;;;1023401;28;19914;-74
2022/09/09 01:32:51;;;;;;;;;;;;;;;;;;1027540;28;19963;-75
2022/09/09 01:33:23;;;;;;;;;;;;;;;;;;1025555;28;19914;-74
2022/09/09 01:33:53;;;;;;;;;;;;;;;;;;1029229;28;19929;-74
2022/09/09 01:34:24;;;;;;;;;;;;;;;;;;1020434;28;19917;-74
2022/09/09 01:34:54;;;;;;;;;;;;;;;;;;1019783;28;19911;-74
2022/09/09 01:35:24;;;;;;;;;;;;;;;;;;1023509;28;19945;-74
2022/09/09 01:35:55;;;;;;;;;;;;;;;;;;1024593;28;19909;-74
2022/09/09 01:36:26;;;;;;;;;;;;;;;;;;1023032;28;20338;-74
2022/09/09 01:36:56;;;;;;;;;;;;;;;;;;1025009;28;19914;-74
2022/09/09 01:37:27;;;;;;;;;;;;;;;;;;1028232;28;19913;-75
2022/09/09 01:37:57;;;;;;;;;;;;;;;;;;1026874;28;19920;-75
2022/09/09 01:38:27;;;;;;;;;;;;;;;;;;1025895;28;19916;-75
2022/09/09 01:38:58;;;;;;;;;;;;;;;;;;1026352;28;20422;-75
2022/09/09 01:39:28;;;;;;;;;;;;;;;;;;1021074;29;19918;-75
2022/09/09 01:39:59;;;;;;;;;;;;;;;;;;1019388;29;19911;-75
2022/09/09 01:40:29;;;;;;;;;;;;;;;;;;1020631;28;19914;-75
2022/09/09 01:41:01;;;;;;;;;;;;;;;;;;1019702;29;20497;-75
2022/09/09 01:41:31;;;;;;;;;;;;;;;;;;1022503;28;19938;-75
2022/09/09 01:42:01;;;;;;;;;;;;;;;;;;1020756;29;19910;-74
2022/09/09 01:42:32;;;;;;;;;;;;;;;;;;1019980;28;20257;-74
2022/09/09 01:43:02;;;;;;;;;;;;;;;;;;1025527;28;19969;-74
2022/09/09 01:43:33;;;;;;;;;;;;;;;;;;1027174;28;19960;-74
2022/09/09 01:44:06;;;;;;;;;;;;;;;;;;1026787;28;19984;-75
2022/09/09 01:44:41;;;;;;;;;;;;;;;;;;1026519;28;20004;-75
2022/09/09 01:45:13;;;;;;;;;;;;;;;;;;1021539;28;20422;-75
2022/09/09 01:45:43;;;;;;;;;;;;;;;;;;1018266;29;19938;-75
2022/09/09 01:46:13;;;;;;;;;;;;;;;;;;1018467;29;20411;-75
2022/09/09 01:46:44;;;;;;;;;;;;;;;;;;1018717;29;20299;-75
2022/09/09 01:47:14;;;;;;;;;;;;;;;;;;1024070;28;20327;-75
2022/09/09 01:47:44;;;;;;;;;;;;;;;;;;1025890;28;20392;-75
2022/09/09 01:48:16;;;;;;;;;;;;;;;;;;1024646;28;19914;-75
2022/09/09 01:48:46;;;;;;;;;;;;;;;;;;1020643;29;20294;-75
2022/09/09 01:49:17;;;;;;;;;;;;;;;;;;1021661;29;19946;-75
2022/09/09 01:49:47;;;;;;;;;;;;;;;;;;1020268;29;20005;-75
2022/09/09 01:50:17;;;;;;;;;;;;;;;;;;1022050;28;19918;-76
2022/09/09 01:50:48;;;;;;;;;;;;;;;;;;1024523;28;19914;-75
2022/09/09 01:51:19;;;;;;;;;;;;;;;;;;1021704;28;19978;-75
2022/09/09 01:51:49;;;;;;;;;;;;;;;;;;1019444;29;19914;-75
2022/09/09 01:52:20;;;;;;;;;;;;;;;;;;1024291;28;19918;-75
2022/09/09 01:52:50;;;;;;;;;;;;;;;;;;1024443;28;20209;-75
2022/09/09 01:53:34;;;;;;;;;;;;;;;;;;1020873;28;20237;-76
2022/09/09 01:54:04;;;;;;;;;;;;;;;;;;1018779;29;20359;-77
2022/09/09 01:54:38;;;;;;;;;;;;;;;;;;1021204;29;19911;-75
2022/09/09 01:55:09;;;;;;;;;;;;;;;;;;1021798;28;20457;-75
2022/09/09 01:55:39;;;;;;;;;;;;;;;;;;1020344;28;19915;-75
2022/09/09 01:56:10;;;;;;;;;;;;;;;;;;1018539;29;19910;-76
2022/09/09 01:56:41;;;;;;;;;;;;;;;;;;1019003;29;19915;-75
2022/09/09 01:57:12;;;;;;;;;;;;;;;;;;1022160;23;19911;-75
2022/09/09 01:57:42;;;;;;;;;;;;;;;;;;1010453;29;19924;-75
2022/09/09 01:58:14;;;;;;;;;;;;;;;;;;1012247;29;20017;-75
2022/09/09 01:58:45;;;;;;;;;;;;;;;;;;1016181;29;19965;-75
2022/09/09 01:59:15;;;;;;;;;;;;;;;;;;1014354;29;20489;-75
2022/09/09 01:59:46;;;;;;;;;;;;;;;;;;1013834;29;20092;-75
2022/09/09 02:00:16;;;;;;;;;;;;;;;;;;1012230;29;20386;-75
2022/09/09 02:00:47;;;;;;;;;;;;;;;;;;1013136;29;19974;-75
2022/09/09 02:01:17;;;;;;;;;;;;;;;;;;1011112;29;19915;-74
2022/09/09 02:01:47;;;;;;;;;;;;;;;;;;1014423;29;20437;-75
2022/09/09 02:02:18;;;;;;;;;;;;;;;;;;1010220;29;19911;-75
2022/09/09 02:02:49;;;;;;;;;;;;;;;;;;1008447;29;19926;-75
2022/09/09 02:03:23;;;;;;;;;;;;;;;;;;1007783;29;20345;-75
2022/09/09 02:03:53;;;;;;;;;;;;;;;;;;1011432;29;19918;-75
2022/09/09 02:04:23;;;;;;;;;;;;;;;;;;1009263;29;19911;-75
2022/09/09 02:04:54;;;;;;;;;;;;;;;;;;1009002;29;19911;-75
2022/09/09 02:05:24;;;;;;;;;;;;;;;;;;1006412;29;20488;-75
2022/09/09 02:05:54;;;;;;;;;;;;;;;;;;1007401;29;19920;-75
2022/09/09 02:06:25;;;;;;;;;;;;;;;;;;1009110;29;19915;-74
2022/09/09 02:06:55;;;;;;;;;;;;;;;;;;1010135;29;20397;-76
2022/09/09 02:07:26;;;;;;;;;;;;;;;;;;1009369;29;20336;-75
2022/09/09 02:07:56;;;;;;;;;;;;;;;;;;1013598;29;20029;-76
2022/09/09 02:08:30;;;;;;;;;;;;;;;;;;1010568;29;20397;-75
2022/09/09 02:09:01;;;;;;;;;;;;;;;;;;1010391;29;19959;-74
2022/09/09 02:09:31;;;;;;;;;;;;;;;;;;1010694;29;19912;-75
2022/09/09 02:10:01;;;;;;;;;;;;;;;;;;1010188;29;19951;-75
2022/09/09 02:10:38;;;;;;;;;;;;;;;;;;1010880;29;19916;-76
2022/09/09 02:11:15;;;;;;;;;;;;;;;;;;1009783;29;20030;-76
2022/09/09 02:11:50;;;;;;;;;;;;;;;;;;1010012;29;20692;-75
2022/09/09 02:12:20;;;;;;;;;;;;;;;;;;1012049;29;19959;-76
2022/09/09 02:13:33;;;;;;;;;;;;;;;;;;1019872;23;20355;-75
2022/09/09 02:14:03;;;;;;;;;;;;;;;;;;1017488;29;19978;-76
2022/09/09 02:14:34;;;;;;;;;;;;;;;;;;1019447;29;19910;-76
2022/09/09 02:15:04;;;;;;;;;;;;;;;;;;1017398;29;19968;-76
2022/09/09 02:15:35;;;;;;;;;;;;;;;;;;1018812;29;20475;-75
2022/09/09 02:16:05;;;;;;;;;;;;;;;;;;1018806;29;19921;-75
2022/09/09 02:16:38;;;;;;;;;;;;;;;;;;1020212;29;20389;-75
2022/09/09 02:17:09;;;;;;;;;;;;;;;;;;1018995;28;19997;-75
2022/09/09 02:17:39;;;;;;;;;;;;;;;;;;1035033;23;19997;-75
2022/09/09 02:18:11;;;;;;;;;;;;;;;;;;1019226;29;19954;-74
2022/09/09 02:18:42;;;;;;;;;;;;;;;;;;1016948;29;19921;-75
2022/09/09 02:19:13;;;;;;;;;;;;;;;;;;1018695;29;19941;-77
2022/09/09 02:19:43;;;;;;;;;;;;;;;;;;1017264;29;19910;-75
2022/09/09 02:20:14;;;;;;;;;;;;;;;;;;1018355;29;19920;-75
2022/09/09 02:20:44;;;;;;;;;;;;;;;;;;1018452;29;20261;-74
2022/09/09 02:22:25;;;;;;;;;;;;;;;;;;1021260;28;19926;-74
2022/09/09 02:22:57;;;;;;;;;;;;;;;;;;1018282;29;19958;-77
2022/09/09 02:23:28;;;;;;;;;;;;;;;;;;1018733;29;19962;-75
2022/09/09 02:24:04;;;;;;;;;;;;;;;;;;1017147;28;20386;-76
2022/09/09 02:24:35;;;;;;;;;;;;;;;;;;1007512;28;20180;-75
2022/09/09 02:25:05;;;;;;;;;;;;;;;;;;1018359;28;19918;-75
2022/09/09 02:25:39;;;;;;;;;;;;;;;;;;1020210;29;19910;-76
2022/09/09 02:26:13;;;;;;;;;;;;;;;;;;1022356;23;19954;-76
2022/09/09 02:26:43;;;;;;;;;;;;;;;;;;1016329;29;19919;-76
2022/09/09 02:27:14;;;;;;;;;;;;;;;;;;1016669;29;20534;-77
2022/09/09 02:27:44;;;;;;;;;;;;;;;;;;1015690;29;19943;-76
2022/09/09 02:28:15;;;;;;;;;;;;;;;;;;1018170;29;19945;-77
2022/09/09 02:28:45;;;;;;;;;;;;;;;;;;1014710;29;19895;-77
2022/09/09 02:29:15;;;;;;;;;;;;;;;;;;1018029;29;19910;-77
2022/09/09 02:29:47;;;;;;;;;;;;;;;;;;1015399;29;19975;-77
2022/09/09 02:30:17;;;;;;;;;;;;;;;;;;1019040;29;20007;-77
2022/09/09 02:30:48;;;;;;;;;;;;;;;;;;1022281;29;19914;-77
2022/09/09 02:31:18;;;;;;;;;;;;;;;;;;1020701;29;19918;-78
2022/09/09 02:31:49;;;;;;;;;;;;;;;;;;1020252;29;19911;-78
2022/09/09 02:32:19;;;;;;;;;;;;;;;;;;1017055;29;19911;-77
2022/09/09 02:32:50;;;;;;;;;;;;;;;;;;1019431;29;19922;-77
2022/09/09 02:33:20;;;;;;;;;;;;;;;;;;1019598;29;19919;-78
2022/09/09 02:33:51;;;;;;;;;;;;;;;;;;1021835;29;19931;-78
2022/09/09 02:34:21;;;;;;;;;;;;;;;;;;1020314;29;20706;-79
2022/09/09 02:34:51;;;;;;;;;;;;;;;;;;1016216;29;19993;-78
2022/09/09 02:35:22;;;;;;;;;;;;;;;;;;1016471;29;20424;-78
2022/09/09 02:35:52;;;;;;;;;;;;;;;;;;1010546;29;19927;-79
2022/09/09 02:36:23;;;;;;;;;;;;;;;;;;1013264;29;20343;-78
2022/09/09 02:36:53;;;;;;;;;;;;;;;;;;1066883;23;19920;-76
2022/09/09 02:37:28;;;;;;;;;;;;;;;;;;1028310;23;19971;-77
2022/09/09 02:37:59;;;;;;;;;;;;;;;;;;1021211;29;20282;-77
2022/09/09 02:38:29;;;;;;;;;;;;;;;;;;1022910;28;19961;-77
2022/09/09 02:38:59;;;;;;;;;;;;;;;;;;1025379;28;20004;-77
2022/09/09 02:39:30;;;;;;;;;;;;;;;;;;1022498;29;19919;-77
2022/09/09 02:40:00;;;;;;;;;;;;;;;;;;1028868;28;19913;-77
2022/09/09 02:40:30;;;;;;;;;;;;;;;;;;1024845;28;19914;-77
2022/09/09 02:41:01;;;;;;;;;;;;;;;;;;1023723;28;19970;-76
2022/09/09 02:41:32;;;;;;;;;;;;;;;;;;1022214;28;19920;-78
2022/09/09 02:42:04;;;;;;;;;;;;;;;;;;1021312;28;19914;-77
2022/09/09 02:42:34;;;;;;;;;;;;;;;;;;1022953;29;20343;-77
2022/09/09 02:43:06;;;;;;;;;;;;;;;;;;1019841;29;19985;-78
2022/09/09 02:43:37;;;;;;;;;;;;;;;;;;1016347;29;19915;-77
2022/09/09 02:44:07;;;;;;;;;;;;;;;;;;1016423;29;20399;-78
2022/09/09 02:44:37;;;;;;;;;;;;;;;;;;1024329;29;20291;-76
2022/09/09 02:45:08;;;;;;;;;;;;;;;;;;1017764;29;19918;-76
2022/09/09 02:45:38;;;;;;;;;;;;;;;;;;1022425;29;19921;-78
2022/09/09 02:46:09;;;;;;;;;;;;;;;;;;1018236;29;19918;-77
2022/09/09 02:46:39;;;;;;;;;;;;;;;;;;1018726;29;19918;-77
2022/09/09 02:47:09;;;;;;;;;;;;;;;;;;1018388;29;20370;-78
2022/09/09 02:47:40;;;;;;;;;;;;;;;;;;1020928;29;19968;-77
2022/09/09 02:48:10;;;;;;;;;;;;;;;;;;1021299;28;19914;-77
2022/09/09 02:48:41;;;;;;;;;;;;;;;;;;1021222;28;19914;-78
2022/09/09 02:49:12;;;;;;;;;;;;;;;;;;1017815;29;20436;-78
2022/09/09 02:49:43;;;;;;;;;;;;;;;;;;1018187;29;19981;-77
2022/09/09 02:50:13;;;;;;;;;;;;;;;;;;1018731;29;20239;-78
2022/09/09 02:50:44;;;;;;;;;;;;;;;;;;1014523;29;20491;-78
2022/09/09 02:51:14;;;;;;;;;;;;;;;;;;1022438;23;20811;-76
2022/09/09 02:51:44;;;;;;;;;;;;;;;;;;1018798;29;20017;-75
2022/09/09 02:52:18;;;;;;;;;;;;;;;;;;1015218;29;19974;-75
2022/09/09 02:52:49;;;;;;;;;;;;;;;;;;1021070;28;19961;-73
2022/09/09 02:53:20;;;;;;;;;;;;;;;;;;1017951;29;20546;-74
2022/09/09 02:53:51;;;;;;;;;;;;;;;;;;1017756;29;19926;-74
2022/09/09 02:54:21;;;;;;;;;;;;;;;;;;1014295;29;19963;-75
2022/09/09 02:54:52;;;;;;;;;;;;;;;;;;1013599;29;20387;-75
2022/09/09 02:55:22;;;;;;;;;;;;;;;;;;1012985;29;19926;-76
2022/09/09 02:55:54;;;;;;;;;;;;;;;;;;1013374;29;19911;-75
2022/09/09 02:56:24;;;;;;;;;;;;;;;;;;1011845;29;20037;-74
2022/09/09 02:56:56;;;;;;;;;;;;;;;;;;1013194;29;20414;-75
2022/09/09 02:57:27;;;;;;;;;;;;;;;;;;1016870;28;19918;-74
2022/09/09 02:57:58;;;;;;;;;;;;;;;;;;1020993;28;19914;-75
2022/09/09 02:58:29;;;;;;;;;;;;;;;;;;1020134;28;20383;-75
2022/09/09 02:58:59;;;;;;;;;;;;;;;;;;1017695;29;19918;-75
2022/09/09 02:59:30;;;;;;;;;;;;;;;;;;1016986;29;20399;-75
2022/09/09 03:00:01;;;;;;;;;;;;;;;;;;1016751;29;20029;-75
2022/09/09 03:00:32;;;;;;;;;;;;;;;;;;1017696;29;19934;-75
2022/09/09 03:01:03;;;;;;;;;;;;;;;;;;1020374;29;19942;-74
2022/09/09 03:01:33;;;;;;;;;;;;;;;;;;1022013;28;19917;-74
2022/09/09 03:02:03;;;;;;;;;;;;;;;;;;1021916;28;19910;-74
2022/09/09 03:02:34;;;;;;;;;;;;;;;;;;1022555;28;20008;-75
2022/09/09 03:03:46;;;;;;;;;;;;;;;;;;824260;23;20710;-75
2022/09/09 03:04:16;;;;;;;;;;;;;;;;;;1023728;28;20823;-75
2022/09/09 03:04:50;;;;;;;;;;;;;;;;;;1022435;28;19918;-73
2022/09/09 03:05:21;;;;;;;;;;;;;;;;;;1023659;28;20004;-74
2022/09/09 03:05:51;;;;;;;;;;;;;;;;;;1024056;28;20057;-74
2022/09/09 03:06:21;;;;;;;;;;;;;;;;;;1022473;29;19969;-75
2022/09/09 03:06:52;;;;;;;;;;;;;;;;;;1020215;28;20029;-76
2022/09/09 03:07:23;;;;;;;;;;;;;;;;;;1020299;29;19914;-75
2022/09/09 03:07:53;;;;;;;;;;;;;;;;;;1020733;28;19941;-74
2022/09/09 03:08:23;;;;;;;;;;;;;;;;;;1024234;28;20238;-74
2022/09/09 03:08:54;;;;;;;;;;;;;;;;;;1024463;28;19910;-74
2022/09/09 03:09:25;;;;;;;;;;;;;;;;;;1026275;28;19958;-73
2022/09/09 03:09:56;;;;;;;;;;;;;;;;;;1026943;28;19918;-74
2022/09/09 03:10:26;;;;;;;;;;;;;;;;;;1024725;28;20013;-76
2022/09/09 03:10:56;;;;;;;;;;;;;;;;;;1024176;28;19925;-75
2022/09/09 03:11:27;;;;;;;;;;;;;;;;;;1024779;28;20602;-74
2022/09/09 03:11:58;;;;;;;;;;;;;;;;;;1022066;28;20796;-74
2022/09/09 03:12:28;;;;;;;;;;;;;;;;;;1021855;29;20373;-75
2022/09/09 03:12:58;;;;;;;;;;;;;;;;;;1020688;28;19950;-75
2022/09/09 03:13:28;;;;;;;;;;;;;;;;;;1020347;28;19914;-75
2022/09/09 03:13:59;;;;;;;;;;;;;;;;;;1028463;28;20013;-74
2022/09/09 03:14:30;;;;;;;;;;;;;;;;;;1025713;28;21808;-74
2022/09/09 03:15:00;;;;;;;;;;;;;;;;;;1026559;28;19914;-74
2022/09/09 03:15:31;;;;;;;;;;;;;;;;;;1022567;28;19914;-74
2022/09/09 03:16:01;;;;;;;;;;;;;;;;;;1022275;28;19911;-78
2022/09/09 03:16:33;;;;;;;;;;;;;;;;;;1019440;29;20016;-77
2022/09/09 03:17:03;;;;;;;;;;;;;;;;;;1019376;28;20010;-74
2022/09/09 03:17:34;;;;;;;;;;;;;;;;;;1015408;28;20760;-77
2022/09/09 03:18:04;;;;;;;;;;;;;;;;;;1013783;29;19914;-78
2022/09/09 03:18:36;;;;;;;;;;;;;;;;;;1005613;29;20183;-79
2022/09/09 03:19:06;;;;;;;;;;;;;;;;;;1007436;29;20282;-76
2022/09/09 03:19:37;;;;;;;;;;;;;;;;;;1004366;29;20195;-76
2022/09/09 03:20:08;;;;;;;;;;;;;;;;;;1004374;29;19988;-76
2022/09/09 03:20:38;;;;;;;;;;;;;;;;;;1015199;28;19914;-75
2022/09/09 03:21:09;;;;;;;;;;;;;;;;;;1024195;28;19956;-78
2022/09/09 03:21:39;;;;;;;;;;;;;;;;;;1023713;28;19922;-76
2022/09/09 03:22:09;;;;;;;;;;;;;;;;;;1023566;28;20491;-76
2022/09/09 03:22:40;;;;;;;;;;;;;;;;;;1024697;28;20487;-75
2022/09/09 03:23:10;;;;;;;;;;;;;;;;;;1024850;28;19957;-76
2022/09/09 03:23:41;;;;;;;;;;;;;;;;;;1021265;29;20596;-75
2022/09/09 03:24:11;;;;;;;;;;;;;;;;;;1020202;28;19918;-75
2022/09/09 03:24:41;;;;;;;;;;;;;;;;;;1021811;28;19968;-74
2022/09/09 03:25:12;;;;;;;;;;;;;;;;;;1021911;28;20065;-75
2022/09/09 03:25:42;;;;;;;;;;;;;;;;;;1023906;28;19910;-77
2022/09/09 03:26:14;;;;;;;;;;;;;;;;;;1019978;28;20202;-76
2022/09/09 03:26:45;;;;;;;;;;;;;;;;;;1018951;28;20333;-76
2022/09/09 03:27:15;;;;;;;;;;;;;;;;;;1019793;29;20455;-76
2022/09/09 03:27:45;;;;;;;;;;;;;;;;;;1021766;28;19934;-77
2022/09/09 03:28:17;;;;;;;;;;;;;;;;;;1024257;28;20916;-76
2022/09/09 03:28:49;;;;;;;;;;;;;;;;;;1022883;28;19957;-74
2022/09/09 03:29:19;;;;;;;;;;;;;;;;;;1018340;28;19934;-74
2022/09/09 03:29:50;;;;;;;;;;;;;;;;;;1018765;29;19931;-76
2022/09/09 03:30:24;;;;;;;;;;;;;;;;;;1017894;29;19922;-76
2022/09/09 03:30:54;;;;;;;;;;;;;;;;;;1020479;28;19915;-75
2022/09/09 03:31:25;;;;;;;;;;;;;;;;;;1025065;28;20428;-75
2022/09/09 03:31:55;;;;;;;;;;;;;;;;;;1023145;28;20361;-76
2022/09/09 03:32:26;;;;;;;;;;;;;;;;;;1018793;29;20547;-75